Cruise inventory

RV Colonel Templer SESAME-1

Cruise plan

Cruise Info. 
Ship name (ship code)RV Colonel Templer (74TC)
Cruise identifierSESAME-1
Cruise period1995-08-10 — 1995-09-11
StatusCompleted
ObjectivesIn August-September 1995 (SESAME-1) and August 1996 (SESAME-2) the Shelf Edge Study Acoustic Measurement experiment (SESAME) took place on the Malin shelf-edge, on the North-West UK shelf margin. The experiment coincided with the NERC SES experiment, and a large complementary dataset of remotely sensed and in-situ measurements was gathered.
Chief scientistUnknown (Unknown)
Data held at BODC 
Series/Profiles 
31  CTD/STD cast
Vertical spatial coordinates
Salinity of the water column
Temperature of the water column
Reference numbers
Vertical spatial coordinates
Salinity of the water column
Temperature of the water column
Reference numbers

BODC idDate/TimeLocationDoc.
4949201995-08-15 16:31 56° 32' 59" N  9° 0' 0" W  View metadata report for BODC series reference number 494920
4949321995-08-15 17:09 56° 35' 12" N  8° 59' 30" W  View metadata report for BODC series reference number 494932
4949441995-08-15 17:42 56° 37' 23" N  8° 58' 59" W  View metadata report for BODC series reference number 494944
4949561995-08-15 18:10 56° 39' 24" N  8° 58' 19" W  View metadata report for BODC series reference number 494956
4949681995-08-15 19:00 56° 37' 23" N  8° 58' 59" W  View metadata report for BODC series reference number 494968
4949811995-08-17 17:42 56° 33' 1" N  9° 1' 18" W  View metadata report for BODC series reference number 494981
4949931995-08-17 18:49 56° 33' 0" N  9° 7' 30" W  View metadata report for BODC series reference number 494993
4950071995-08-17 19:45 56° 32' 59" N  9° 10' 49" W  View metadata report for BODC series reference number 495007
4950191995-08-17 20:34 56° 32' 59" N  9° 15' 51" W  View metadata report for BODC series reference number 495019
4950201995-08-17 21:36 56° 32' 59" N  9° 20' 42" W  View metadata report for BODC series reference number 495020
4950321995-08-17 22:36 56° 32' 59" N  9° 30' 30" W  View metadata report for BODC series reference number 495032
4950441995-08-17 23:38 56° 32' 59" N  9° 40' 14" W  View metadata report for BODC series reference number 495044
4950561995-08-23 14:04 56° 33' 4" N  9° 5' 12" W  View metadata report for BODC series reference number 495056
4950681995-09-05 08:17 56° 46' 1" N  8° 40' 45" W  View metadata report for BODC series reference number 495068
4950811995-09-05 09:21 56° 46' 12" N  8° 52' 0" W  View metadata report for BODC series reference number 495081
4950931995-09-05 09:46 56° 46' 3" N  8° 55' 37" W  View metadata report for BODC series reference number 495093
4951001995-09-05 10:16 56° 46' 6" N  8° 59' 18" W  View metadata report for BODC series reference number 495100
4951121995-09-05 10:51 56° 46' 3" N  9° 6' 35" W  View metadata report for BODC series reference number 495112
4951241995-09-05 15:30 56° 44' 1" N  8° 55' 58" W  View metadata report for BODC series reference number 495124
4951361995-09-05 21:52 56° 38' 4" N  9° 0' 58" W  View metadata report for BODC series reference number 495136
4951481995-09-05 22:45 56° 35' 35" N  9° 0' 10" W  View metadata report for BODC series reference number 495148
4951611995-09-05 23:24 56° 32' 49" N  9° 0' 21" W  View metadata report for BODC series reference number 495161
4951731995-09-05 00:15 56° 33' 3" N  8° 56' 1" W  View metadata report for BODC series reference number 495173
4951851995-09-06 01:07 56° 32' 59" N  8° 50' 53" W  View metadata report for BODC series reference number 495185
4951971995-09-06 01:56 56° 32' 59" N  8° 46' 0" W  View metadata report for BODC series reference number 495197
4952041995-09-06 16:20 56° 31' 19" N  8° 22' 12" W  View metadata report for BODC series reference number 495204
4952161995-09-06 17:22 56° 33' 3" N  8° 31' 3" W  View metadata report for BODC series reference number 495216
4952281995-09-06 18:22 56° 32' 58" N  8° 41' 22" W  View metadata report for BODC series reference number 495228
4952411995-09-06 19:03 56° 32' 59" N  8° 51' 11" W  View metadata report for BODC series reference number 495241
4952531995-09-06 19:51 56° 38' 17" N  8° 58' 59" W  View metadata report for BODC series reference number 495253
4952651995-09-06 20:52 56° 46' 14" N  8° 55' 37" W  View metadata report for BODC series reference number 495265
Discrete samples 
31  CTD frame plus rosette samplerDensity of the water column
Salinity of the water column
Temperature of the water column